Time;durP1;ratioP1;P1;durP2;ratioP2;P2;SDS_P1;SDS_P2;PMS_P1;PMS_P2;Temp;Humidity;BMP_temperature;BMP_pressure;BME280_temperature;BME280_humidity;BME280_pressure;Samples;Min_cycle;Max_cycle;Signal;HPM_P1;HPM_P2
2021/04/02 00:01:44;;;;;;;21.45;10.50;;;;;;;12.00;67.44;97679.31;5052820;28;20032;-74
2021/04/02 00:04:09;;;;;;;17.95;10.18;;;;;;;12.01;67.58;97686.41;5034758;28;20029;-76
2021/04/02 00:06:35;;;;;;;22.02;11.65;;;;;;;12.12;67.37;97682.34;5052579;28;20021;-75
2021/04/02 00:09:00;;;;;;;21.23;12.15;;;;;;;11.96;67.38;97681.06;5053093;28;20025;-75
2021/04/02 00:11:26;;;;;;;15.05;11.00;;;;;;;11.86;68.10;97681.31;5053382;28;20021;-75
2021/04/02 00:13:52;;;;;;;19.13;10.48;;;;;;;11.86;68.27;97684.06;5051453;28;20029;-75
2021/04/02 00:16:19;;;;;;;17.15;11.45;;;;;;;11.70;68.70;97678.94;5042524;28;20029;-74
2021/04/02 00:18:45;;;;;;;18.33;10.30;;;;;;;11.78;68.59;97686.41;5041196;28;20545;-75
2021/04/02 00:21:13;;;;;;;18.40;9.75;;;;;;;11.77;68.76;97687.53;5044710;28;20029;-76
2021/04/02 00:23:39;;;;;;;17.98;9.80;;;;;;;11.71;68.82;97675.09;5048136;28;20059;-74
2021/04/02 00:26:13;;;;;;;19.80;10.90;;;;;;;11.90;68.33;97674.91;5036548;28;20433;-75
2021/04/02 00:28:38;;;;;;;13.88;9.63;;;;;;;11.70;68.98;97673.44;5033446;28;20029;-75
2021/04/02 00:31:05;;;;;;;14.45;10.23;;;;;;;11.55;69.75;97684.72;5033046;28;20393;-75
2021/04/02 00:33:33;;;;;;;21.13;10.25;;;;;;;11.42;70.22;97680.09;5032516;28;20017;-75
2021/04/02 00:36:00;;;;;;;15.05;9.43;;;;;;;11.43;70.42;97670.75;5014670;28;20021;-76
2021/04/02 00:38:26;;;;;;;12.30;9.73;;;;;;;11.41;70.43;97672.16;5032771;28;20017;-76
2021/04/02 00:40:57;;;;;;;15.30;9.23;;;;;;;11.50;70.53;97662.09;5031319;28;20030;-76
2021/04/02 00:43:29;;;;;;;20.55;11.30;;;;;;;11.51;70.21;97661.00;5032236;28;20022;-75
2021/04/02 00:45:54;;;;;;;16.25;10.70;;;;;;;11.61;69.66;97650.63;5014883;28;20113;-77
2021/04/02 00:48:20;;;;;;;20.95;12.30;;;;;;;11.54;69.76;97654.91;5031993;28;20124;-76
2021/04/02 00:50:51;;;;;;;18.20;10.55;;;;;;;11.52;69.86;97652.47;5031771;28;20682;-75
2021/04/02 00:53:19;;;;;;;19.17;10.63;;;;;;;11.33;70.84;97662.75;5014219;28;20099;-75
2021/04/02 00:55:45;;;;;;;14.57;10.15;;;;;;;11.32;70.99;97657.59;5034863;28;20116;-75
2021/04/02 00:58:13;;;;;;;12.25;8.93;;;;;;;11.24;71.33;97657.19;5042189;28;20095;-75
2021/04/02 01:00:40;;;;;;;19.48;9.95;;;;;;;11.28;71.08;97646.44;5021784;28;20033;-75
2021/04/02 01:03:06;;;;;;;13.75;9.52;;;;;;;11.38;70.96;97654.44;5032245;28;20030;-76
2021/04/02 01:05:37;;;;;;;15.88;10.25;;;;;;;11.27;71.35;97664.81;5031784;28;20033;-76
2021/04/02 01:08:05;;;;;;;14.77;9.38;;;;;;;11.25;71.28;97663.47;5032253;28;20028;-75
2021/04/02 01:10:32;;;;;;;21.27;10.00;;;;;;;11.39;70.99;97667.00;5032368;28;20538;-73
2021/04/02 01:13:07;;;;;;;14.05;9.98;;;;;;;11.14;71.84;97673.84;5032200;28;20052;-76
2021/04/02 01:15:52;;;;;;;17.23;9.88;;;;;;;11.18;71.68;97658.41;5032153;28;20071;-76
2021/04/02 01:18:26;;;;;;;15.10;10.77;;;;;;;11.22;71.42;97664.09;5031968;28;20043;-76
2021/04/02 01:20:55;;;;;;;19.70;11.25;;;;;;;11.22;71.58;97659.44;5031235;28;20083;-74
2021/04/02 01:23:27;;;;;;;16.63;10.15;;;;;;;11.21;71.67;97663.28;5022340;28;20033;-76
2021/04/02 01:26:30;;;;;;;17.55;10.32;;;;;;;11.14;71.82;97657.41;5011273;28;20061;-74
2021/04/02 01:29:39;;;;;;;17.83;9.48;;;;;;;11.09;72.11;97648.47;5031025;28;20037;-75
2021/04/02 01:32:09;;;;;;;13.80;9.13;;;;;;;10.97;72.32;97653.66;4972504;28;20140;-75
2021/04/02 01:34:42;;;;;;;16.27;8.82;;;;;;;11.01;72.39;97658.25;5004917;28;20064;-75
2021/04/02 01:37:17;;;;;;;16.52;10.30;;;;;;;10.93;72.35;97647.22;5039076;28;20108;-74
2021/04/02 01:39:42;;;;;;;14.98;8.80;;;;;;;11.01;72.07;97638.28;5033856;28;20037;-75
2021/04/02 01:42:14;;;;;;;15.00;8.85;;;;;;;11.06;71.73;97654.56;5012966;28;20037;-74
2021/04/02 01:44:41;;;;;;;16.88;10.55;;;;;;;10.98;72.31;97655.31;5031417;28;20079;-74
2021/04/02 01:47:08;;;;;;;14.85;8.98;;;;;;;10.81;73.06;97647.69;5031686;28;20018;-75
2021/04/02 01:49:36;;;;;;;14.45;9.45;;;;;;;10.85;72.36;97645.16;5031115;28;20072;-75
2021/04/02 01:52:02;;;;;;;20.42;10.82;;;;;;;11.01;72.47;97643.75;5030514;28;20053;-77
2021/04/02 01:54:29;;;;;;;19.00;10.02;;;;;;;10.95;72.56;97647.69;5031224;28;20513;-74
2021/04/02 01:56:55;;;;;;;16.13;10.30;;;;;;;10.97;72.20;97650.94;5031383;28;20443;-74
2021/04/02 01:59:22;;;;;;;14.52;10.82;;;;;;;10.89;72.83;97638.78;5030944;28;20083;-75
2021/04/02 02:01:50;;;;;;;16.80;10.02;;;;;;;11.06;72.86;97649.09;5030647;28;20541;-74
2021/04/02 02:04:20;;;;;;;13.65;9.40;;;;;;;11.05;72.35;97634.63;5030108;28;20033;-74
2021/04/02 02:06:47;;;;;;;22.52;11.23;;;;;;;10.99;72.54;97643.25;5030863;28;20014;-75
2021/04/02 02:09:15;;;;;;;17.15;10.48;;;;;;;10.83;73.26;97634.53;5039393;28;20414;-74
2021/04/02 02:11:43;;;;;;;18.10;9.55;;;;;;;10.92;72.93;97640.09;5038725;28;20033;-74
2021/04/02 02:14:13;;;;;;;18.13;11.82;;;;;;;10.73;73.05;97618.31;5045159;28;20803;-75
2021/04/02 02:16:51;;;;;;;22.73;9.23;;;;;;;10.72;73.39;97625.72;5050735;28;20029;-74
2021/04/02 02:19:23;;;;;;;17.40;10.65;;;;;;;10.80;73.05;97634.34;5050556;28;20477;-74
2021/04/02 02:21:50;;;;;;;17.50;11.35;;;;;;;11.00;72.73;97631.16;5050335;28;20736;-75
2021/04/02 02:24:17;;;;;;;18.55;9.98;;;;;;;11.09;72.13;97632.06;5050433;28;20025;-74
2021/04/02 02:26:44;;;;;;;15.35;9.85;;;;;;;11.13;71.68;97633.88;5032312;28;20026;-74
2021/04/02 02:29:11;;;;;;;15.23;9.85;;;;;;;11.07;71.44;97626.91;5030271;28;20482;-74
2021/04/02 02:31:38;;;;;;;17.85;10.82;;;;;;;11.10;71.49;97622.75;5030118;28;20030;-77
2021/04/02 02:34:05;;;;;;;15.95;10.02;;;;;;;11.03;71.73;97625.06;5029927;28;20026;-74
2021/04/02 02:36:32;;;;;;;13.35;9.95;;;;;;;11.19;71.42;97626.38;5029978;28;20037;-74
2021/04/02 02:38:58;;;;;;;13.48;10.05;;;;;;;11.15;71.71;97628.13;5012520;28;20042;-74
2021/04/02 02:41:29;;;;;;;18.13;10.40;;;;;;;11.14;71.29;97629.22;5032924;28;20025;-74
2021/04/02 02:43:56;;;;;;;16.02;10.40;;;;;;;11.03;72.38;97633.28;5040775;28;20041;-75
2021/04/02 02:46:25;;;;;;;18.58;10.77;;;;;;;11.28;71.62;97630.81;5038320;28;20025;-74
2021/04/02 02:48:54;;;;;;;13.63;9.07;;;;;;;11.00;71.90;97604.59;5039693;28;20052;-75
2021/04/02 02:51:20;;;;;;;17.38;8.95;;;;;;;11.08;72.22;97625.81;5012169;28;20382;-75
2021/04/02 02:53:47;;;;;;;13.85;8.07;;;;;;;11.22;71.39;97623.84;5030135;28;20037;-76
2021/04/02 02:56:16;;;;;;;15.10;9.20;;;;;;;11.15;71.49;97625.38;5030234;28;20021;-75
2021/04/02 02:58:43;;;;;;;15.70;8.02;;;;;;;11.07;71.69;97623.34;5030217;28;20044;-75
2021/04/02 03:01:11;;;;;;;14.95;8.32;;;;;;;11.08;72.13;97622.25;5029877;28;20029;-75
2021/04/02 03:03:38;;;;;;;10.95;9.20;;;;;;;11.05;72.02;97618.19;5029701;28;20479;-74
2021/04/02 03:06:06;;;;;;;12.43;9.13;;;;;;;11.11;71.70;97603.28;5028908;28;20036;-74
2021/04/02 03:08:41;;;;;;;13.60;9.70;;;;;;;11.24;71.38;97618.84;5028839;28;20071;-75
2021/04/02 03:11:08;;;;;;;12.98;7.82;;;;;;;11.34;71.04;97617.81;5028305;28;20025;-73
2021/04/02 03:13:35;;;;;;;12.75;8.02;;;;;;;11.33;71.43;97604.44;5030036;28;20025;-75
2021/04/02 03:16:00;;;;;;;15.07;8.75;;;;;;;11.24;71.22;97605.16;5030413;28;20040;-75
2021/04/02 03:18:27;;;;;;;20.02;8.70;;;;;;;11.19;71.60;97609.94;5030158;28;20017;-75
2021/04/02 03:20:54;;;;;;;14.40;9.90;;;;;;;11.36;71.43;97604.66;5029932;28;20501;-75
2021/04/02 03:23:20;;;;;;;16.13;9.85;;;;;;;11.36;71.33;97588.22;5029737;28;20471;-75
2021/04/02 03:25:47;;;;;;;17.98;10.88;;;;;;;11.13;72.09;97592.03;5048067;28;20493;-75
2021/04/02 03:28:16;;;;;;;18.23;10.82;;;;;;;11.23;71.55;97595.34;5050164;28;20033;-76
2021/04/02 03:30:42;;;;;;;16.38;10.15;;;;;;;11.19;71.76;97599.81;5049859;28;20025;-76
2021/04/02 03:33:24;;;;;;;15.95;10.05;;;;;;;11.23;71.86;97598.09;5049523;28;20036;-75
2021/04/02 03:35:54;;;;;;;17.08;9.73;;;;;;;11.16;71.65;97586.75;5032390;28;20419;-75
2021/04/02 03:38:22;;;;;;;13.90;10.57;;;;;;;11.07;72.14;97595.97;5049683;28;20393;-74
2021/04/02 03:40:49;;;;;;;16.63;10.18;;;;;;;11.08;72.53;97601.16;5031938;28;20029;-74
2021/04/02 03:43:15;;;;;;;16.73;9.85;;;;;;;11.17;72.29;97614.94;5050010;28;20063;-74
2021/04/02 03:45:43;;;;;;;16.40;9.73;;;;;;;11.16;72.18;97610.56;5049279;28;20029;-74
2021/04/02 03:48:11;;;;;;;18.60;9.02;;;;;;;11.32;70.87;97603.63;5030931;28;20033;-75
2021/04/02 03:50:40;;;;;;;13.88;9.60;;;;;;;11.32;71.11;97611.03;5049723;28;20037;-75
2021/04/02 03:53:24;;;;;;;18.88;9.38;;;;;;;11.19;71.49;97604.47;5049928;28;20116;-74
2021/04/02 03:55:53;;;;;;;16.67;8.95;;;;;;;11.06;71.98;97616.25;5031795;28;20116;-74
2021/04/02 03:58:20;;;;;;;15.23;9.35;;;;;;;10.80;72.29;97591.38;5049844;28;20032;-74
2021/04/02 04:01:12;;;;;;;16.15;8.88;;;;;;;10.71;73.07;97610.41;5031917;28;20028;-74
2021/04/02 04:03:41;;;;;;;17.45;11.10;;;;;;;10.57;73.62;97615.09;5048847;28;20068;-75
2021/04/02 04:06:09;;;;;;;18.73;10.93;;;;;;;10.53;74.13;97616.78;5032327;28;20051;-76
2021/04/02 04:08:36;;;;;;;13.77;9.88;;;;;;;10.52;73.78;97609.72;5049881;28;20029;-76
2021/04/02 04:11:03;;;;;;;15.82;9.95;;;;;;;10.36;74.11;97608.41;5049821;28;20017;-75
2021/04/02 04:13:31;;;;;;;19.50;9.95;;;;;;;10.30;74.48;97604.13;5049490;28;20082;-75
2021/04/02 04:15:57;;;;;;;14.88;10.73;;;;;;;10.38;73.95;97608.06;5051215;28;20029;-75
2021/04/02 04:18:26;;;;;;;13.38;9.68;;;;;;;10.28;74.19;97606.34;5035189;28;20039;-75
2021/04/02 04:20:57;;;;;;;15.57;10.35;;;;;;;10.19;75.03;97608.97;5053069;28;20029;-75
2021/04/02 04:23:23;;;;;;;17.48;10.68;;;;;;;10.09;75.17;97605.56;5052911;28;20031;-75
2021/04/02 04:25:52;;;;;;;11.90;9.77;;;;;;;10.18;75.19;97618.28;5053161;28;20070;-76
2021/04/02 04:28:21;;;;;;;15.48;9.75;;;;;;;10.26;74.53;97611.31;5052842;28;20049;-75
2021/04/02 04:30:48;;;;;;;16.33;10.63;;;;;;;10.25;74.52;97612.41;5052753;28;20036;-76
2021/04/02 04:33:17;;;;;;;17.05;11.00;;;;;;;10.32;74.17;97607.38;5052971;28;20506;-75
2021/04/02 04:35:44;;;;;;;14.27;9.38;;;;;;;10.32;74.12;97618.31;5052586;28;20533;-76
2021/04/02 04:38:12;;;;;;;13.85;9.55;;;;;;;10.55;73.38;97611.84;5040020;28;20060;-74
2021/04/02 04:40:37;;;;;;;13.38;8.35;;;;;;;10.53;73.18;97602.31;5032598;28;20038;-75
2021/04/02 04:43:05;;;;;;;17.13;11.07;;;;;;;10.56;73.29;97607.97;5033058;28;20033;-75
2021/04/02 04:45:32;;;;;;;19.52;10.55;;;;;;;10.46;73.51;97599.97;5032892;28;20040;-75
2021/04/02 04:47:58;;;;;;;18.65;10.73;;;;;;;10.51;73.21;97588.94;5032138;28;20029;-75
2021/04/02 04:50:25;;;;;;;19.35;11.63;;;;;;;10.70;72.51;97594.31;5032172;28;20046;-76
2021/04/02 04:53:02;;;;;;;22.73;11.57;;;;;;;10.66;72.97;97601.50;5014805;28;20017;-75
2021/04/02 04:55:31;;;;;;;23.48;13.55;;;;;;;10.51;73.26;97599.88;5041050;28;20087;-75
2021/04/02 04:57:58;;;;;;;22.10;13.45;;;;;;;10.28;74.73;97609.06;5052647;28;20029;-75
2021/04/02 05:00:24;;;;;;;22.95;11.82;;;;;;;10.27;74.74;97610.22;5030530;28;20042;-75
2021/04/02 05:02:52;;;;;;;21.83;12.07;;;;;;;10.50;74.07;97622.06;5036069;28;20037;-77
2021/04/02 05:05:25;;;;;;;16.92;9.57;;;;;;;10.44;74.22;97615.88;5032251;28;20120;-76
2021/04/02 05:07:52;;;;;;;24.60;9.85;;;;;;;10.40;74.59;97620.31;5032117;28;20398;-76
2021/04/02 05:10:19;;;;;;;17.23;10.48;;;;;;;10.47;74.36;97625.41;5032127;28;20159;-75
2021/04/02 05:12:47;;;;;;;20.38;10.13;;;;;;;10.54;73.94;97626.63;5031611;28;20064;-75
2021/04/02 05:15:12;;;;;;;13.68;8.13;;;;;;;10.52;73.85;97623.41;5031812;28;20067;-75
2021/04/02 05:17:39;;;;;;;15.02;9.70;;;;;;;10.62;73.23;97622.34;5027645;28;20057;-75
2021/04/02 05:20:05;;;;;;;14.15;8.48;;;;;;;10.50;73.18;97614.66;5011979;28;20029;-76
2021/04/02 05:22:31;;;;;;;29.98;17.55;;;;;;;10.24;74.54;97629.13;5011747;28;20483;-75
2021/04/02 05:24:56;;;;;;;16.85;8.15;;;;;;;10.17;75.07;97627.59;5012138;28;20034;-74
2021/04/02 05:27:22;;;;;;;19.17;9.48;;;;;;;10.23;74.89;97631.03;5011333;28;20485;-74
2021/04/02 05:29:47;;;;;;;18.38;8.27;;;;;;;10.46;74.12;97624.59;5011742;28;20029;-75
2021/04/02 05:32:12;;;;;;;18.70;9.45;;;;;;;10.45;74.36;97617.50;5011772;28;20022;-75
2021/04/02 05:34:38;;;;;;;14.63;9.70;;;;;;;10.52;73.74;97608.91;5011875;28;20025;-78
2021/04/02 05:37:03;;;;;;;16.52;10.50;;;;;;;10.73;73.02;97608.19;4994883;28;20573;-76
2021/04/02 05:39:29;;;;;;;16.20;9.63;;;;;;;10.87;72.25;97623.81;5011238;28;20048;-76
2021/04/02 05:42:04;;;;;;;16.60;12.82;;;;;;;10.81;72.67;97634.00;5011212;28;20046;-76
2021/04/02 05:44:33;;;;;;;19.33;11.27;;;;;;;10.75;73.34;97627.84;5011585;28;20022;-76
2021/04/02 05:47:01;;;;;;;18.60;12.35;;;;;;;10.95;72.94;97636.75;5011570;28;20100;-76
2021/04/02 05:49:28;;;;;;;19.90;11.02;;;;;;;11.20;71.60;97638.94;5028667;28;20052;-75
2021/04/02 05:51:56;;;;;;;20.20;9.45;;;;;;;11.09;71.96;97638.34;5034994;28;20080;-74
2021/04/02 05:54:45;;;;;;;31.55;11.65;;;;;;;11.10;71.47;97642.72;5030802;28;20117;-75
2021/04/02 05:57:10;;;;;;;21.80;11.18;;;;;;;11.08;71.72;97642.22;5029312;28;20030;-74
2021/04/02 05:59:47;;;;;;;21.50;9.70;;;;;;;11.10;71.52;97647.38;5033374;28;20025;-75
2021/04/02 06:02:15;;;;;;;50.05;28.88;;;;;;;11.26;71.81;97649.50;5038280;28;20116;-74
2021/04/02 06:04:40;;;;;;;43.78;26.05;;;;;;;11.27;71.51;97634.69;5039121;28;20033;-75
2021/04/02 06:07:06;;;;;;;21.52;13.75;;;;;;;11.46;70.21;97642.75;5037291;28;20087;-75
2021/04/02 06:09:31;;;;;;;18.27;9.68;;;;;;;11.65;69.77;97639.84;5014858;28;20033;-75
2021/04/02 06:11:57;;;;;;;22.77;10.13;;;;;;;11.74;68.90;97647.06;5030522;28;20029;-76
2021/04/02 06:14:23;;;;;;;12.23;8.63;;;;;;;11.79;68.80;97641.44;5034783;28;20033;-74
2021/04/02 06:16:50;;;;;;;15.18;9.52;;;;;;;11.75;68.67;97645.91;5030651;28;20064;-75
2021/04/02 06:19:16;;;;;;;17.20;9.00;;;;;;;11.76;68.61;97657.69;5027285;28;20033;-76
2021/04/02 06:21:54;;;;;;;15.25;8.77;;;;;;;11.60;68.70;97649.00;5029796;28;20541;-74
2021/04/02 06:24:38;;;;;;;18.77;9.57;;;;;;;11.68;68.53;97655.69;5027290;28;20069;-75
2021/04/02 06:27:05;;;;;;;17.13;10.48;;;;;;;11.68;68.65;97661.94;5019507;28;20757;-75
2021/04/02 06:29:37;;;;;;;15.88;8.45;;;;;;;11.58;68.57;97653.97;5030381;28;20026;-76
2021/04/02 06:32:04;;;;;;;11.30;8.02;;;;;;;11.68;68.41;97650.97;5017606;28;20068;-75
2021/04/02 06:34:30;;;;;;;28.98;11.50;;;;;;;11.62;67.92;97646.75;5038981;28;20132;-75
2021/04/02 06:37:02;;;;;;;20.95;12.25;;;;;;;11.66;67.72;97650.50;5037833;28;20156;-73
2021/04/02 06:39:32;;;;;;;19.58;11.05;;;;;;;11.77;67.84;97649.19;5038137;28;20661;-75
2021/04/02 06:42:01;;;;;;;18.58;10.15;;;;;;;11.90;67.41;97660.41;5039339;28;20078;-76
2021/04/02 06:44:30;;;;;;;22.80;10.68;;;;;;;12.29;65.92;97664.03;5037800;28;20028;-75
2021/04/02 06:46:56;;;;;;;10.52;7.55;;;;;;;12.27;65.72;97658.06;5035894;28;20025;-77
2021/04/02 06:49:22;;;;;;;19.02;9.93;;;;;;;12.25;65.49;97659.50;5038635;28;20053;-76
2021/04/02 06:51:50;;;;;;;15.88;9.75;;;;;;;12.24;65.80;97658.72;5039893;28;20039;-77
2021/04/02 06:54:18;;;;;;;22.27;11.07;;;;;;;12.28;65.77;97651.44;5036952;28;20021;-75
2021/04/02 06:56:59;;;;;;;24.50;9.82;;;;;;;12.41;64.87;97659.91;5039552;28;20079;-76
2021/04/02 06:59:26;;;;;;;35.08;21.83;;;;;;;12.65;63.44;97669.41;5032843;28;20044;-76
2021/04/02 07:01:54;;;;;;;48.22;26.45;;;;;;;12.93;62.92;97669.19;5037921;28;20029;-76
2021/04/02 07:04:23;;;;;;;56.10;30.75;;;;;;;13.15;62.10;97669.16;5031996;28;20164;-76
2021/04/02 07:06:54;;;;;;;31.40;20.63;;;;;;;13.17;62.22;97666.88;5033273;28;20105;-76
2021/04/02 07:09:27;;;;;;;25.08;13.27;;;;;;;13.27;62.31;97674.84;5029193;28;20428;-76
2021/04/02 07:11:59;;;;;;;19.92;11.15;;;;;;;13.16;61.93;97662.50;5028944;28;20116;-75
2021/04/02 07:14:25;;;;;;;24.60;14.38;;;;;;;13.12;61.47;97672.53;5033169;28;20035;-76
2021/04/02 07:16:54;;;;;;;12.82;7.38;;;;;;;12.87;62.21;97666.59;5036093;28;20478;-76
2021/04/02 07:19:20;;;;;;;15.90;8.88;;;;;;;13.09;61.53;97667.69;5030486;28;20029;-76
2021/04/02 07:21:49;;;;;;;18.63;8.50;;;;;;;13.73;59.98;97671.50;5036318;28;20029;-75
2021/04/02 07:24:19;;;;;;;14.02;8.30;;;;;;;13.44;60.16;97672.09;5029158;28;20021;-76
2021/04/02 07:26:46;;;;;;;17.63;8.88;;;;;;;13.43;60.62;97675.19;5034290;28;20386;-76
2021/04/02 07:29:14;;;;;;;15.05;8.73;;;;;;;13.82;59.68;97680.56;5035178;28;20076;-76
2021/04/02 07:31:39;;;;;;;12.18;7.93;;;;;;;13.78;59.22;97674.09;5028853;28;20060;-75
2021/04/02 07:34:06;;;;;;;16.70;8.85;;;;;;;13.54;60.89;97680.06;5030832;28;20069;-75
2021/04/02 07:36:35;;;;;;;14.98;8.38;;;;;;;13.47;60.68;97681.69;5030753;28;20026;-75
2021/04/02 07:39:05;;;;;;;16.73;8.50;;;;;;;13.58;60.60;97688.47;5012758;28;20064;-75
2021/04/02 07:41:37;;;;;;;18.85;10.95;;;;;;;13.82;60.16;97692.38;5023035;28;20071;-76
2021/04/02 07:44:06;;;;;;;13.93;8.30;;;;;;;13.97;60.07;97693.81;5027399;28;20033;-75
2021/04/02 07:46:32;;;;;;;14.02;8.88;;;;;;;13.92;59.38;97683.81;5027872;28;20030;-73
2021/04/02 07:49:07;;;;;;;23.77;9.02;;;;;;;14.27;58.39;97697.53;5027763;28;20110;-75
2021/04/02 07:51:59;;;;;;;13.63;9.63;;;;;;;14.58;60.00;97700.91;5031425;28;20040;-75
2021/04/02 07:54:41;;;;;;;18.75;10.23;;;;;;;14.45;57.87;97693.66;5028000;28;20041;-79
2021/04/02 07:57:12;;;;;;;21.10;11.70;;;;;;;14.67;59.06;97700.88;5031122;28;20025;-76
2021/04/02 07:59:44;;;;;;;18.80;11.43;;;;;;;14.41;57.79;97693.50;5037706;28;20035;-83
2021/04/02 08:02:11;;;;;;;22.10;11.32;;;;;;;14.65;56.76;97697.66;5034379;28;20041;-75
2021/04/02 08:04:42;;;;;;;23.33;12.55;;;;;;;14.62;56.39;97692.81;5030592;28;20034;-74
2021/04/02 08:07:15;;;;;;;23.27;11.27;;;;;;;14.87;56.38;97695.50;5036716;28;20020;-77
2021/04/02 08:09:50;;;;;;;14.38;10.18;;;;;;;14.90;56.36;97699.53;5023045;28;20086;-79
2021/04/02 08:12:16;;;;;;;15.18;9.18;;;;;;;14.99;55.44;97706.63;5033677;28;20021;-77
2021/04/02 08:14:48;;;;;;;13.60;9.05;;;;;;;14.96;55.24;97696.28;5034686;28;20028;-77
2021/04/02 08:17:19;;;;;;;15.05;8.93;;;;;;;15.43;53.83;97708.03;5040461;28;20017;-80
2021/04/02 08:19:45;;;;;;;36.17;21.83;;;;;;;15.88;52.89;97697.22;5039993;28;20025;-75
2021/04/02 08:22:13;;;;;;;26.05;14.77;;;;;;;15.92;54.12;97698.16;5030440;28;20057;-79
2021/04/02 08:24:44;;;;;;;13.90;8.50;;;;;;;15.82;51.79;97698.56;5040332;28;20029;-81
2021/04/02 08:27:10;;;;;;;12.52;7.82;;;;;;;15.93;51.61;97690.69;5040500;28;20146;-76
2021/04/02 08:29:37;;;;;;;14.68;8.82;;;;;;;16.17;51.37;97690.00;5036004;28;20371;-76
2021/04/02 08:32:08;;;;;;;16.20;8.70;;;;;;;17.11;49.80;97686.28;5021888;28;20040;-80
2021/04/02 08:34:35;;;;;;;14.80;8.52;;;;;;;17.19;48.26;97688.13;5040072;28;20509;-75
2021/04/02 08:37:04;;;;;;;15.05;7.38;;;;;;;17.00;49.09;97679.59;5051047;28;20115;-75
2021/04/02 08:39:31;;;;;;;19.23;9.00;;;;;;;16.70;49.19;97678.97;5030119;28;20032;-76
2021/04/02 08:41:59;;;;;;;16.15;9.98;;;;;;;16.86;49.28;97677.16;5031864;28;20033;-76
2021/04/02 08:44:39;;;;;;;10.93;7.90;;;;;;;17.76;47.28;97679.69;5041237;28;20550;-74
2021/04/02 08:47:10;;;;;;;14.50;9.32;;;;;;;18.08;48.15;97683.44;5020173;28;20075;-76
2021/04/02 08:49:43;;;;;;;15.45;8.55;;;;;;;17.49;46.68;97666.56;5009137;28;20050;-78
2021/04/02 08:52:10;;;;;;;12.15;8.00;;;;;;;17.53;48.24;97661.97;5022639;28;20037;-75
2021/04/02 08:54:35;;;;;;;18.75;7.95;;;;;;;17.52;47.06;97661.16;5040535;28;20425;-77
2021/04/02 08:57:02;;;;;;;19.45;7.78;;;;;;;17.84;45.77;97656.63;5035644;28;20112;-81
2021/04/02 08:59:30;;;;;;;15.57;7.90;;;;;;;18.48;44.69;97664.03;5038673;28;20060;-79
2021/04/02 09:01:56;;;;;;;14.45;9.10;;;;;;;19.08;43.56;97666.44;5018097;28;20030;-77
2021/04/02 09:04:22;;;;;;;15.50;9.30;;;;;;;19.99;42.78;97661.47;5021599;28;20083;-77
2021/04/02 09:06:48;;;;;;;16.42;8.18;;;;;;;20.82;40.24;97654.44;5038472;28;20795;-80
2021/04/02 09:09:20;;;;;;;17.98;7.82;;;;;;;20.90;38.82;97656.16;5017881;28;20029;-78
2021/04/02 09:11:48;;;;;;;15.30;8.18;;;;;;;20.78;39.66;97653.56;5036191;28;20039;-76
2021/04/02 09:14:14;;;;;;;23.10;10.00;;;;;;;20.84;38.34;97663.19;5035240;28;20017;-78
2021/04/02 09:16:42;;;;;;;19.45;10.10;;;;;;;21.04;39.41;97653.63;5020640;28;20037;-77
2021/04/02 09:19:08;;;;;;;20.45;11.13;;;;;;;20.28;40.23;97658.16;5015747;28;20014;-78
2021/04/02 09:21:34;;;;;;;16.65;8.75;;;;;;;20.75;39.39;97645.94;5030768;28;20029;-78
2021/04/02 09:24:00;;;;;;;25.55;9.98;;;;;;;20.68;41.27;97643.84;5039233;28;20063;-73
2021/04/02 09:26:38;;;;;;;14.32;9.18;;;;;;;19.75;41.99;97645.06;5035152;28;20562;-75
2021/04/02 09:29:04;;;;;;;12.77;7.50;;;;;;;20.16;40.15;97646.34;5026806;28;20036;-73
2021/04/02 09:31:32;;;;;;;12.85;7.47;;;;;;;20.27;39.67;97636.28;5037767;28;20055;-74
2021/04/02 09:34:06;;;;;;;18.92;8.45;;;;;;;20.45;39.39;97636.66;5031133;28;20028;-75
2021/04/02 09:36:42;;;;;;;13.50;9.40;;;;;;;20.69;42.53;97625.19;5017742;28;20025;-74
2021/04/02 09:39:24;;;;;;;24.17;8.98;;;;;;;20.03;40.56;97640.13;5036802;28;20033;-75
2021/04/02 09:41:53;;;;;;;14.98;9.77;;;;;;;20.35;40.07;97640.03;5039678;28;20021;-76
2021/04/02 09:44:22;;;;;;;17.70;8.93;;;;;;;20.04;39.95;97630.66;5045622;28;20028;-75
2021/04/02 09:46:49;;;;;;;15.23;8.32;;;;;;;19.97;40.55;97629.69;5031463;28;20029;-74
2021/04/02 09:49:22;;;;;;;15.05;9.02;;;;;;;20.38;40.13;97628.16;5042288;28;20087;-75
2021/04/02 09:51:49;;;;;;;13.68;9.40;;;;;;;20.44;41.48;97637.81;5030077;28;20029;-74
2021/04/02 09:54:15;;;;;;;12.07;7.28;;;;;;;20.98;39.33;97630.09;5029837;28;20040;-76
2021/04/02 09:56:42;;;;;;;12.77;8.15;;;;;;;19.99;41.67;97633.69;5029577;28;20103;-76
2021/04/02 09:59:08;;;;;;;21.60;9.15;;;;;;;20.21;40.67;97618.28;5029084;28;20805;-74
2021/04/02 10:01:35;;;;;;;13.15;7.18;;;;;;;20.82;38.70;97613.53;5018583;28;20115;-75
2021/04/02 10:04:02;;;;;;;11.13;6.82;;;;;;;23.08;36.70;97624.16;5048767;28;20119;-74
2021/04/02 10:06:27;;;;;;;9.95;5.85;;;;;;;22.99;34.10;97626.47;5030990;28;20033;-74
2021/04/02 10:08:53;;;;;;;10.82;6.18;;;;;;;23.05;35.53;97621.34;5049437;28;20453;-74
2021/04/02 10:11:19;;;;;;;16.00;7.38;;;;;;;22.47;34.77;97613.56;5048089;28;20032;-76
2021/04/02 10:13:44;;;;;;;14.60;8.50;;;;;;;21.93;35.82;97602.94;5035394;28;20068;-74
2021/04/02 10:16:10;;;;;;;11.27;6.78;;;;;;;21.54;36.52;97602.38;5030132;28;20369;-76
2021/04/02 10:18:36;;;;;;;10.32;6.80;;;;;;;22.56;37.60;97602.09;5041989;28;20029;-75
2021/04/02 10:21:04;;;;;;;12.80;7.07;;;;;;;22.69;35.28;97597.88;5032131;28;20091;-75
2021/04/02 10:23:30;;;;;;;11.55;6.30;;;;;;;22.75;35.06;97601.91;5037851;28;20032;-75
2021/04/02 10:25:55;;;;;;;13.93;7.82;;;;;;;23.11;33.64;97603.84;5049725;28;20430;-75
2021/04/02 10:28:22;;;;;;;13.95;6.78;;;;;;;23.34;32.55;97598.03;5050735;28;20466;-75
2021/04/02 10:30:48;;;;;;;14.23;6.35;;;;;;;22.72;33.92;97585.94;5040505;28;20026;-74
2021/04/02 10:33:14;;;;;;;12.88;6.35;;;;;;;22.32;34.61;97584.72;5048463;28;20021;-75
2021/04/02 10:35:39;;;;;;;7.47;5.18;;;;;;;22.05;34.80;97588.00;5051013;28;20033;-75
2021/04/02 10:38:05;;;;;;;10.30;6.38;;;;;;;21.99;35.08;97583.94;5050152;28;20025;-75
2021/04/02 10:40:33;;;;;;;16.30;6.93;;;;;;;23.04;35.31;97573.09;5049556;28;21464;-75
2021/04/02 10:43:00;;;;;;;12.38;5.03;;;;;;;22.56;34.06;97569.44;5049916;28;20511;-73
2021/04/02 10:45:25;;;;;;;8.40;6.07;;;;;;;22.38;34.64;97569.25;5032657;28;20396;-74
2021/04/02 10:47:51;;;;;;;8.48;5.95;;;;;;;21.73;35.39;97568.03;5032509;28;20025;-74
2021/04/02 10:50:17;;;;;;;12.27;5.90;;;;;;;22.42;35.00;97563.72;5050061;28;20087;-74
2021/04/02 10:52:43;;;;;;;11.32;5.45;;;;;;;22.57;33.67;97553.50;5049813;28;20600;-74
2021/04/02 10:55:10;;;;;;;11.35;5.43;;;;;;;22.04;34.19;97564.09;5050485;28;20397;-75
2021/04/02 10:57:35;;;;;;;10.32;5.32;;;;;;;22.72;33.58;97558.06;5050555;28;20072;-75
2021/04/02 11:00:02;;;;;;;9.88;4.55;;;;;;;23.18;33.28;97564.81;5050400;28;20095;-75
2021/04/02 11:02:27;;;;;;;8.38;4.50;;;;;;;23.15;32.63;97553.66;5032802;28;20025;-75
2021/04/02 11:04:53;;;;;;;8.40;4.38;;;;;;;22.30;33.52;97544.50;5050744;28;20025;-73
2021/04/02 11:07:18;;;;;;;9.30;4.50;;;;;;;22.64;34.04;97548.81;5049634;28;20110;-74
2021/04/02 11:09:44;;;;;;;19.02;5.60;;;;;;;22.50;33.69;97536.69;5032741;28;20508;-74
2021/04/02 11:12:09;;;;;;;8.02;4.32;;;;;;;21.95;34.73;97530.16;5050383;28;20536;-74
2021/04/02 11:14:35;;;;;;;9.00;5.05;;;;;;;22.11;34.28;97531.53;5050754;28;20025;-75
2021/04/02 11:17:00;;;;;;;12.10;7.60;;;;;;;22.09;33.64;97521.94;5032332;28;20029;-75
2021/04/02 11:19:27;;;;;;;19.27;10.52;;;;;;;21.62;34.07;97519.75;5017357;28;20112;-75
2021/04/02 11:21:52;;;;;;;25.02;7.97;;;;;;;22.13;33.20;97526.38;5032913;28;20037;-77
2021/04/02 11:24:17;;;;;;;11.70;5.13;;;;;;;22.64;31.58;97525.69;5052078;28;20021;-75
2021/04/02 11:26:43;;;;;;;8.57;4.80;;;;;;;23.14;33.08;97522.16;5054059;28;20021;-74
2021/04/02 11:29:08;;;;;;;13.10;5.20;;;;;;;22.57;33.91;97509.69;5054426;28;20047;-74